createdAt,value
2022-12-08T00:02:19.683Z,0.50
2022-12-08T00:05:40.749Z,0.50
2022-12-08T00:09:02.016Z,0.40
2022-12-08T00:12:09.424Z,0.68
2022-12-08T00:15:12.851Z,0.70
2022-12-08T00:18:16.328Z,0.35
2022-12-08T00:21:19.883Z,0.53
2022-12-08T00:24:26.508Z,0.70
2022-12-08T00:27:31.401Z,0.65
2022-12-08T00:30:34.739Z,0.75
2022-12-08T00:33:38.711Z,0.47
2022-12-08T00:36:43.412Z,0.80
2022-12-08T00:39:47.930Z,0.93
2022-12-08T00:42:52.819Z,0.55
2022-12-08T00:45:56.359Z,0.70
2022-12-08T00:48:59.774Z,0.60
2022-12-08T00:52:03.932Z,0.63
2022-12-08T00:55:08.055Z,0.30
2022-12-08T00:58:12.949Z,0.85
2022-12-08T01:01:16.755Z,0.82
2022-12-08T01:04:21.781Z,0.80
2022-12-08T01:07:25.186Z,1.10
2022-12-08T01:10:28.897Z,0.88
2022-12-08T01:13:33.980Z,0.70
2022-12-08T01:16:38.888Z,0.57
2022-12-08T01:19:42.726Z,0.75
2022-12-08T01:22:46.201Z,1.60
2022-12-08T01:25:49.518Z,1.17
2022-12-08T01:28:54.534Z,1.27
2022-12-08T01:31:57.833Z,0.63
2022-12-08T01:35:01.723Z,0.95
2022-12-08T01:38:05.268Z,0.77
2022-12-08T01:41:08.785Z,0.57
2022-12-08T01:45:06.258Z,0.85
2022-12-08T01:48:19.471Z,0.73
2022-12-08T01:51:23.279Z,1.00
2022-12-08T01:54:33.171Z,1.00
2022-12-08T01:57:44.725Z,0.65
2022-12-08T02:00:52.204Z,0.80
2022-12-08T02:04:01.081Z,0.75
2022-12-08T02:07:08.491Z,0.70
2022-12-08T02:10:18.061Z,0.80
2022-12-08T02:13:24.529Z,0.73
2022-12-08T02:16:43.497Z,0.82
2022-12-08T02:20:20.356Z,0.77
2022-12-08T02:23:37.602Z,0.45
2022-12-08T02:27:33.559Z,0.50
2022-12-08T02:30:52.385Z,1.13
2022-12-08T02:34:19.976Z,0.90
2022-12-08T02:37:32.817Z,0.93
2022-12-08T02:40:47.498Z,0.68
2022-12-08T02:43:59.838Z,0.77
2022-12-08T02:47:10.015Z,0.90
2022-12-08T02:50:16.231Z,1.10
2022-12-08T02:53:19.970Z,0.65
2022-12-08T02:56:59.142Z,0.75
2022-12-08T03:00:12.114Z,1.33
2022-12-08T03:03:25.968Z,0.38
2022-12-08T03:06:42.376Z,0.47
2022-12-08T03:09:52.954Z,0.68
2022-12-08T03:13:05.580Z,0.47
2022-12-08T03:16:15.547Z,1.53
2022-12-08T03:19:24.956Z,0.82
2022-12-08T03:22:30.667Z,0.88
2022-12-08T03:25:42.169Z,0.43
2022-12-08T03:28:46.925Z,0.45
2022-12-08T03:31:57.207Z,0.73
2022-12-08T03:35:08.131Z,0.73
2022-12-08T03:38:16.509Z,0.85
2022-12-08T03:41:21.830Z,0.32
2022-12-08T03:44:25.539Z,0.45
2022-12-08T03:47:29.048Z,0.83
2022-12-08T03:50:32.597Z,0.88
2022-12-08T03:53:38.489Z,0.68
2022-12-08T03:56:42.067Z,1.20
2022-12-08T03:59:45.894Z,0.50
2022-12-08T04:02:49.575Z,0.57
2022-12-08T04:05:53.282Z,0.60
2022-12-08T04:08:58.460Z,0.55
2022-12-08T04:12:01.903Z,0.90
2022-12-08T04:15:06.754Z,0.65
2022-12-08T04:18:10.181Z,0.87
2022-12-08T04:21:14.061Z,0.45
2022-12-08T04:24:20.488Z,0.52
2022-12-08T04:27:24.067Z,0.65
2022-12-08T04:30:27.328Z,0.52
2022-12-08T04:33:31.175Z,0.70
2022-12-08T04:36:34.502Z,0.70
2022-12-08T04:39:39.588Z,0.40
2022-12-08T04:42:44.334Z,0.60
2022-12-08T04:45:48.305Z,0.65
2022-12-08T04:48:51.934Z,0.73
2022-12-08T04:51:55.414Z,0.40
2022-12-08T04:55:00.451Z,0.40
2022-12-08T04:58:04.005Z,1.10
2022-12-08T05:01:07.487Z,0.47
2022-12-08T05:04:11.016Z,0.60
2022-12-08T05:07:14.583Z,0.65
2022-12-08T05:10:19.546Z,0.95
2022-12-08T05:13:23.040Z,0.75
2022-12-08T05:16:26.808Z,0.60
2022-12-08T05:19:30.242Z,0.40
2022-12-08T05:22:33.706Z,0.57
2022-12-08T05:25:38.472Z,0.60
2022-12-08T05:28:43.395Z,0.68
2022-12-08T05:31:47.356Z,0.63
2022-12-08T05:34:51.367Z,0.40
2022-12-08T05:37:54.982Z,0.50
2022-12-08T05:41:00.023Z,0.55
2022-12-08T05:44:03.404Z,0.90
2022-12-08T05:47:06.994Z,0.90
2022-12-08T05:50:11.311Z,0.60
2022-12-08T05:53:15.074Z,0.70
2022-12-08T05:56:21.408Z,0.70
2022-12-08T05:59:25.009Z,0.70
2022-12-08T06:02:28.840Z,0.85
2022-12-08T06:05:34.422Z,1.30
2022-12-08T06:08:37.796Z,0.45
2022-12-08T06:11:46.376Z,1.48
2022-12-08T06:14:49.857Z,1.10
2022-12-08T06:17:53.632Z,0.75
2022-12-08T06:21:05.178Z,0.57
2022-12-08T06:24:09.517Z,0.75
2022-12-08T06:27:14.311Z,0.85
2022-12-08T06:30:19.254Z,0.60
2022-12-08T06:33:22.748Z,0.88
2022-12-08T06:36:28.608Z,0.60
2022-12-08T06:39:32.080Z,0.73
2022-12-08T06:42:47.125Z,1.15
2022-12-08T06:45:50.955Z,0.73
2022-12-08T06:48:55.398Z,1.00
2022-12-08T06:51:58.770Z,0.80
2022-12-08T06:55:02.428Z,1.00
2022-12-08T06:58:07.295Z,0.82
2022-12-08T07:01:13.911Z,0.90
2022-12-08T07:04:17.489Z,1.00
2022-12-08T07:07:21.035Z,1.17
2022-12-08T07:10:24.419Z,1.30
2022-12-08T07:13:29.281Z,1.08
2022-12-08T07:16:33.059Z,1.25
2022-12-08T07:19:36.533Z,0.70
2022-12-08T07:22:40.032Z,1.67
2022-12-08T07:25:43.647Z,0.98
2022-12-08T07:28:48.509Z,1.08
2022-12-08T07:31:52.198Z,0.88
2022-12-08T07:34:55.763Z,1.27
2022-12-08T07:37:59.467Z,1.23
2022-12-08T07:41:03.235Z,1.20
2022-12-08T07:44:08.087Z,0.73
2022-12-08T07:47:11.514Z,0.63
2022-12-08T07:50:15.196Z,1.08
2022-12-08T07:53:18.567Z,0.87
2022-12-08T07:56:22.805Z,0.63
2022-12-08T07:59:27.735Z,1.13
2022-12-08T08:02:31.364Z,1.20
2022-12-08T08:05:34.915Z,0.60
2022-12-08T08:08:38.469Z,1.20
2022-12-08T08:11:41.876Z,1.10
2022-12-08T08:14:46.825Z,1.35
2022-12-08T08:17:52.585Z,0.90
2022-12-08T08:20:58.051Z,0.90
2022-12-08T08:24:01.670Z,1.30
2022-12-08T08:27:05.482Z,0.95
2022-12-08T08:30:19.917Z,1.17
2022-12-08T08:33:24.603Z,1.13
2022-12-08T08:36:27.933Z,1.20
2022-12-08T08:39:31.853Z,0.87
2022-12-08T08:42:35.171Z,1.35
2022-12-08T08:45:40.207Z,1.77
2022-12-08T08:48:44.003Z,1.25
2022-12-08T08:51:48.069Z,2.53
2022-12-08T08:54:51.554Z,2.17
2022-12-08T08:57:55.831Z,2.20
2022-12-08T09:01:00.550Z,3.45
2022-12-08T09:04:04.254Z,3.25
2022-12-08T09:07:07.689Z,2.90
2022-12-08T09:10:14.619Z,3.43
2022-12-08T09:13:19.210Z,2.30
2022-12-08T09:16:25.275Z,3.33
2022-12-08T09:19:28.901Z,1.63
2022-12-08T09:22:32.365Z,2.15
2022-12-08T09:25:35.830Z,2.70
2022-12-08T09:28:39.443Z,3.58
2022-12-08T09:31:44.760Z,1.45
2022-12-08T09:34:52.040Z,2.88
2022-12-08T09:37:55.831Z,2.70
2022-12-08T09:41:01.366Z,3.43
2022-12-08T09:44:38.653Z,2.80
2022-12-08T09:47:49.572Z,3.25
2022-12-08T09:50:57.381Z,2.55
2022-12-08T09:54:08.730Z,2.28
2022-12-08T09:57:21.530Z,3.73
2022-12-08T10:00:25.492Z,2.13
2022-12-08T10:03:32.514Z,2.72
2022-12-08T10:06:48.111Z,2.35
2022-12-08T10:10:04.025Z,2.08
2022-12-08T10:13:21.828Z,1.40
2022-12-08T10:16:35.519Z,1.95
2022-12-08T10:19:44.082Z,1.85
2022-12-08T10:22:54.272Z,2.30
2022-12-08T10:26:04.724Z,2.00
2022-12-08T10:29:14.545Z,1.97
2022-12-08T10:32:22.801Z,1.40
2022-12-08T10:35:46.286Z,1.25
2022-12-08T10:38:49.847Z,1.83
2022-12-08T10:41:53.487Z,1.10
2022-12-08T10:45:03.674Z,1.10
2022-12-08T10:48:18.358Z,2.03
2022-12-08T10:51:31.410Z,0.90
2022-12-08T10:54:38.343Z,0.65
2022-12-08T10:57:42.071Z,1.40
2022-12-08T11:00:45.513Z,1.37
2022-12-08T11:03:52.853Z,1.75
2022-12-08T11:06:57.940Z,1.55
2022-12-08T11:10:01.792Z,1.85
2022-12-08T11:13:15.233Z,0.77
2022-12-08T11:16:21.297Z,1.27
2022-12-08T11:19:28.880Z,1.25
2022-12-08T11:22:39.726Z,0.85
2022-12-08T11:25:43.250Z,1.40
2022-12-08T11:28:46.860Z,1.55
2022-12-08T11:31:56.231Z,1.13
2022-12-08T11:35:04.994Z,0.77
2022-12-08T11:38:21.567Z,1.83
2022-12-08T11:41:33.167Z,0.95
2022-12-08T11:44:46.593Z,0.88
2022-12-08T11:48:03.010Z,1.37
2022-12-08T11:51:14.945Z,2.15
2022-12-08T11:54:28.482Z,1.02
2022-12-08T11:57:31.922Z,1.13
2022-12-08T12:00:35.605Z,1.15
2022-12-08T12:03:47.164Z,1.67
2022-12-08T12:07:32.014Z,1.20
2022-12-08T12:11:01.591Z,1.83
2022-12-08T12:14:27.762Z,0.77
2022-12-08T12:17:45.345Z,0.93
2022-12-08T12:20:58.450Z,0.97
2022-12-08T12:24:08.972Z,0.70
2022-12-08T12:27:28.985Z,0.80
2022-12-08T12:30:55.174Z,1.17
2022-12-08T12:34:09.596Z,0.93
2022-12-08T12:37:19.057Z,1.40
2022-12-08T12:40:28.969Z,1.38
2022-12-08T12:43:37.954Z,1.83
2022-12-08T12:46:57.422Z,0.63
2022-12-08T12:50:10.767Z,1.55
2022-12-08T12:53:51.802Z,1.57
2022-12-08T12:56:57.512Z,0.90
2022-12-08T13:00:26.859Z,1.20
2022-12-08T13:03:30.605Z,0.88
2022-12-08T13:06:42.353Z,0.77
2022-12-08T13:09:45.906Z,1.23
2022-12-08T13:13:08.451Z,0.38
2022-12-08T13:16:25.454Z,1.45
2022-12-08T13:19:34.294Z,1.02
2022-12-08T13:23:05.361Z,0.73
2022-12-08T13:26:18.393Z,1.90
2022-12-08T13:29:24.018Z,1.52
2022-12-08T13:33:18.677Z,1.10
2022-12-08T13:36:29.685Z,0.77
2022-12-08T13:39:45.134Z,0.82
2022-12-08T13:43:05.749Z,0.63
2022-12-08T13:47:02.695Z,0.95
2022-12-08T13:57:10.589Z,2.28
2022-12-08T14:00:18.481Z,2.07
2022-12-08T14:03:23.121Z,2.78
2022-12-08T14:06:32.448Z,1.90
2022-12-08T14:09:38.680Z,1.17
2022-12-08T14:12:48.207Z,2.17
2022-12-08T14:15:51.594Z,1.93
2022-12-08T14:18:55.045Z,1.45
2022-12-08T14:22:02.312Z,0.88
2022-12-08T14:25:09.333Z,1.60
2022-12-08T14:28:14.637Z,1.45
2022-12-08T14:31:18.788Z,1.67
2022-12-08T14:34:22.168Z,1.92
2022-12-08T14:37:32.247Z,1.02
2022-12-08T14:40:38.090Z,1.23
2022-12-08T14:43:43.067Z,1.00
2022-12-08T14:47:06.293Z,1.33
2022-12-08T14:50:42.543Z,2.35
2022-12-08T14:53:55.502Z,2.22
2022-12-08T14:57:03.284Z,1.35
2022-12-08T15:00:12.208Z,1.10
2022-12-08T15:03:18.686Z,2.00
2022-12-08T15:06:23.720Z,1.10
2022-12-08T15:09:36.747Z,1.17
2022-12-08T15:12:40.149Z,1.30
2022-12-08T15:15:51.264Z,1.05
2022-12-08T15:19:16.891Z,1.37
2022-12-08T15:22:24.170Z,0.88
2022-12-08T15:25:28.870Z,1.42
2022-12-08T15:28:32.341Z,1.42
2022-12-08T15:31:35.939Z,1.17
2022-12-08T15:34:39.427Z,0.93
2022-12-08T15:37:43.002Z,0.85
2022-12-08T15:40:48.303Z,1.35
2022-12-08T15:43:53.286Z,1.35
2022-12-08T15:46:57.500Z,1.00
2022-12-08T15:50:00.762Z,1.10
2022-12-08T15:53:04.510Z,1.25
2022-12-08T15:59:33.563Z,1.02
2022-12-08T16:03:04.316Z,1.38
2022-12-08T16:06:50.786Z,0.40
2022-12-08T16:09:34.039Z,1.17
2022-12-08T16:13:55.111Z,0.80
2022-12-08T16:16:30.167Z,0.80
2022-12-08T16:19:33.651Z,0.75
2022-12-08T16:26:24.087Z,0.65
2022-12-08T16:29:26.919Z,1.10
2022-12-08T16:32:31.062Z,1.77
2022-12-08T16:35:34.861Z,0.80
2022-12-08T16:38:38.873Z,0.83
2022-12-08T16:41:59.718Z,1.17
2022-12-08T16:45:08.484Z,1.58
2022-12-08T16:48:15.659Z,1.17
2022-12-08T16:51:26.650Z,1.52
2022-12-08T16:54:30.481Z,1.30
2022-12-08T16:57:35.428Z,1.00
2022-12-08T17:00:40.361Z,0.77
2022-12-08T17:04:07.096Z,0.93
2022-12-08T17:07:10.048Z,1.05
2022-12-08T17:10:18.005Z,0.90
2022-12-08T17:13:21.325Z,0.82
2022-12-08T17:16:27.042Z,1.23
2022-12-08T17:19:30.704Z,1.02
2022-12-08T17:22:35.426Z,0.65
2022-12-08T17:25:38.673Z,1.10
2022-12-08T17:28:59.895Z,0.35
2022-12-08T17:32:06.143Z,1.20
2022-12-08T17:35:11.168Z,1.23
2022-12-08T17:38:14.357Z,1.00
2022-12-08T17:41:18.303Z,0.80
2022-12-08T17:44:21.947Z,1.00
2022-12-08T17:47:27.139Z,1.63
2022-12-08T17:50:30.440Z,0.85
2022-12-08T17:53:37.338Z,0.90
2022-12-08T17:56:40.918Z,1.30
2022-12-08T17:59:45.008Z,0.63
2022-12-08T18:02:49.803Z,1.25
2022-12-08T18:05:55.187Z,1.50
2022-12-08T18:09:00.187Z,0.82
2022-12-08T18:12:04.107Z,0.87
2022-12-08T18:15:13.626Z,0.77
2022-12-08T18:18:19.869Z,1.40
2022-12-08T18:21:23.862Z,0.88
2022-12-08T18:24:27.718Z,3.60
2022-12-08T18:27:31.329Z,0.80
2022-12-08T18:30:34.929Z,2.13
2022-12-08T18:33:42.259Z,1.80
2022-12-08T18:36:46.965Z,2.20
2022-12-08T18:39:50.835Z,1.30
2022-12-08T18:42:55.138Z,1.57
2022-12-08T18:46:03.032Z,1.08
2022-12-08T18:49:13.021Z,1.33
2022-12-08T18:52:22.077Z,3.75
2022-12-08T18:55:29.579Z,1.50
2022-12-08T18:58:33.210Z,1.23
2022-12-08T19:01:39.966Z,1.98
2022-12-08T19:04:45.230Z,1.23
2022-12-08T19:07:48.820Z,1.85
2022-12-08T19:10:52.247Z,1.00
2022-12-08T19:13:56.811Z,1.30
2022-12-08T19:17:00.886Z,1.92
2022-12-08T19:20:09.127Z,1.90
2022-12-08T19:23:13.458Z,1.52
2022-12-08T19:26:17.404Z,1.90
2022-12-08T19:29:20.758Z,1.60
2022-12-08T19:32:24.611Z,1.10
2022-12-08T19:35:29.494Z,1.95
2022-12-08T19:38:53.953Z,2.60
2022-12-08T19:42:14.898Z,1.90
2022-12-08T19:45:22.338Z,1.23
2022-12-08T19:48:26.000Z,2.00
2022-12-08T19:51:30.968Z,1.67
2022-12-08T19:54:34.510Z,1.45
2022-12-08T19:57:38.467Z,1.40
2022-12-08T20:00:42.800Z,1.87
2022-12-08T20:03:46.457Z,1.90
2022-12-08T20:06:53.577Z,2.08
2022-12-08T20:09:57.226Z,1.48
2022-12-08T20:13:15.934Z,2.85
2022-12-08T20:16:19.768Z,1.43
2022-12-08T20:19:23.002Z,1.75
2022-12-08T20:22:27.902Z,1.92
2022-12-08T20:25:31.140Z,1.90
2022-12-08T20:28:35.395Z,1.58
2022-12-08T20:31:39.568Z,2.33
2022-12-08T20:34:43.341Z,1.65
2022-12-08T20:37:48.214Z,1.90
2022-12-08T20:40:51.924Z,1.48
2022-12-08T20:43:55.385Z,1.80
2022-12-08T20:46:58.938Z,1.43
2022-12-08T20:50:02.396Z,1.58
2022-12-08T20:53:07.633Z,1.45
2022-12-08T20:56:16.754Z,1.95
2022-12-08T20:59:20.825Z,1.67
2022-12-08T21:02:24.449Z,1.43
2022-12-08T21:05:29.226Z,1.55
2022-12-08T21:08:36.357Z,2.17
2022-12-08T21:11:40.426Z,2.40
2022-12-08T21:14:43.911Z,1.95
2022-12-08T21:17:47.740Z,1.80
2022-12-08T21:20:52.814Z,1.40
2022-12-08T21:23:58.017Z,1.50
2022-12-08T21:27:01.532Z,1.75
2022-12-08T21:30:07.688Z,2.80
2022-12-08T21:33:11.618Z,1.43
2022-12-08T21:36:18.364Z,1.17
2022-12-08T21:39:23.193Z,2.17
2022-12-08T21:42:45.094Z,3.00
2022-12-08T21:45:48.796Z,1.60
2022-12-08T21:48:52.467Z,2.27
2022-12-08T21:51:57.034Z,1.67
2022-12-08T21:55:02.145Z,1.45
2022-12-08T21:58:05.947Z,1.98
2022-12-08T22:01:12.478Z,1.67
2022-12-08T22:04:21.441Z,2.47
2022-12-08T22:07:25.366Z,1.98
2022-12-08T22:10:30.256Z,1.70
2022-12-08T22:13:36.062Z,1.92
2022-12-08T22:16:40.364Z,1.50
2022-12-08T22:19:44.395Z,1.13
2022-12-08T22:22:47.721Z,1.67
2022-12-08T22:25:59.218Z,1.40
2022-12-08T22:29:02.948Z,1.75
2022-12-08T22:32:07.065Z,1.85
2022-12-08T22:35:12.076Z,2.10
2022-12-08T22:38:15.628Z,1.90
2022-12-08T22:41:21.871Z,1.95
2022-12-08T22:44:25.598Z,1.90
2022-12-08T22:47:30.382Z,2.33
2022-12-08T22:50:34.000Z,1.70
2022-12-08T22:53:37.564Z,1.92
2022-12-08T22:56:42.653Z,1.80
2022-12-08T22:59:46.052Z,2.00
2022-12-08T23:02:49.938Z,1.83
2022-12-08T23:05:53.695Z,1.70
2022-12-08T23:08:58.189Z,2.38
2022-12-08T23:12:03.213Z,1.75
2022-12-08T23:15:08.740Z,2.03
2022-12-08T23:18:19.116Z,1.63
2022-12-08T23:21:23.400Z,1.40
2022-12-08T23:24:26.824Z,1.75
2022-12-08T23:27:33.100Z,2.30
2022-12-08T23:30:37.506Z,2.22
2022-12-08T23:33:41.552Z,1.60
2022-12-08T23:36:44.994Z,1.27
2022-12-08T23:39:48.503Z,1.90
2022-12-08T23:42:53.142Z,1.98
2022-12-08T23:45:57.022Z,1.90
2022-12-08T23:49:00.459Z,2.35
2022-12-08T23:52:04.860Z,1.77
2022-12-08T23:55:11.110Z,1.60
2022-12-08T23:58:16.234Z,2.15
